KPOF/POF METAR and TAF weather

Enter ICAO airport designator
Station Type Date Time Source
KPOF METAR 2020/09/27 02:53 UTC NOAA

KPOF 270253Z AUTO 18006KT 10SM CLR 19/16 A2990 RMK AO2 SLP120 T01890161 53004


Station Type Date Time Source
KPOF Decoded METAR 2020/09/27 02:53 UTC NOAA

POPLAR BLUFF MUN AIRPORT, MO, United States (KPOF) 36-46N 090-19W 100M
Sep 26, 2020 - 10:53 PM EDT / 2020.09.27 0253 UTC
Wind: from the S (180 degrees) at 7 MPH (6 KT):0
Visibility: 10 mile(s):0
Sky conditions: clear
Temperature: 66.0 F (18.9 C)
Dew Point: 61.0 F (16.1 C)
Relative Humidity: 83%
Pressure (altimeter): 29.9 in. Hg (1012 hPa)
Pressure tendency: 0.01 inches (0.4 hPa) higher than three hours ago
ob: KPOF 270253Z AUTO 18006KT 10SM CLR 19/16 A2990 RMK AO2 SLP120 T01890161 53004
cycle: 3

Station Type Date Time Source
KPOF TAF UTC NOAA

Error!

Example: see airport list